Time;durP1;ratioP1;P1;durP2;ratioP2;P2;SDS_P1;SDS_P2;PMS_P1;PMS_P2;Temp;Humidity;BMP_temperature;BMP_pressure;BME280_temperature;BME280_humidity;BME280_pressure;Samples;Min_cycle;Max_cycle;Signal;HPM_P1;HPM_P2
2021/07/15 00:00:52;;;;;;;0.00;0.00;;;14.50;85.80;;;;;;5051848;28;20517;-74
2021/07/15 00:03:20;;;;;;;0.00;0.00;;;14.50;85.70;;;;;;5018986;28;20033;-74
2021/07/15 00:05:46;;;;;;;0.90;0.00;;;14.50;85.70;;;;;;5035408;28;20024;-73
2021/07/15 00:08:16;;;;;;;0.00;0.00;;;14.50;85.40;;;;;;5035458;28;20025;-75
2021/07/15 00:10:57;;;;;;;0.93;0.00;;;14.40;86.00;;;;;;5035445;28;20021;-74
2021/07/15 00:13:24;;;;;;;1.08;0.00;;;14.40;86.00;;;;;;5035344;28;20024;-74
2021/07/15 00:15:54;;;;;;;0.20;0.03;;;14.40;86.20;;;;;;5051739;28;20025;-74
2021/07/15 00:18:28;;;;;;;1.40;0.00;;;14.40;86.70;;;;;;5051777;28;20029;-74
2021/07/15 00:20:54;;;;;;;0.90;0.00;;;14.30;86.50;;;;;;5035150;28;20108;-74
2021/07/15 00:23:20;;;;;;;0.15;0.00;;;14.30;86.90;;;;;;5052415;28;20037;-74
2021/07/15 00:25:47;;;;;;;0.00;0.00;;;14.30;87.10;;;;;;5051835;28;20033;-75
2021/07/15 00:28:16;;;;;;;0.10;0.00;;;14.30;87.10;;;;;;5056177;28;20032;-74
2021/07/15 00:30:42;;;;;;;0.00;0.00;;;14.30;87.10;;;;;;5043138;28;20049;-75
2021/07/15 00:33:09;;;;;;;0.00;0.00;;;14.30;86.90;;;;;;5021815;28;20511;-74
2021/07/15 00:35:36;;;;;;;0.10;0.00;;;14.30;86.70;;;;;;5018564;28;20079;-74
2021/07/15 00:38:04;;;;;;;1.85;0.00;;;14.30;87.60;;;;;;5018305;28;20048;-74
2021/07/15 00:40:30;;;;;;;0.00;0.00;;;14.30;86.80;;;;;;5018524;28;20021;-74
2021/07/15 00:42:56;;;;;;;0.00;0.00;;;14.30;86.30;;;;;;5034814;28;20051;-74
2021/07/15 00:45:23;;;;;;;0.00;0.00;;;14.30;86.30;;;;;;5034919;28;20029;-75
2021/07/15 00:47:49;;;;;;;0.68;0.10;;;14.30;87.00;;;;;;5034685;28;20070;-74
2021/07/15 00:50:18;;;;;;;0.22;0.08;;;14.20;86.80;;;;;;5034904;28;20020;-74
2021/07/15 00:52:44;;;;;;;0.00;0.00;;;14.20;87.00;;;;;;5034727;28;20029;-74
2021/07/15 00:55:20;;;;;;;0.00;0.00;;;14.20;86.10;;;;;;5034704;28;20036;-74
2021/07/15 00:57:48;;;;;;;0.00;0.00;;;14.30;86.60;;;;;;5034909;28;20029;-74
2021/07/15 01:00:15;;;;;;;0.25;0.10;;;14.20;86.20;;;;;;5034375;28;20032;-77
2021/07/15 01:02:41;;;;;;;0.00;0.00;;;14.20;86.10;;;;;;5051035;28;20052;-76
2021/07/15 01:05:15;;;;;;;0.75;0.00;;;14.30;86.20;;;;;;5034473;28;20029;-76
2021/07/15 01:07:41;;;;;;;0.00;0.00;;;14.30;85.90;;;;;;5034704;28;20029;-76
2021/07/15 01:10:09;;;;;;;0.70;0.10;;;14.30;86.20;;;;;;5018357;28;20084;-74
2021/07/15 01:13:27;;;;;;;0.03;0.00;;;14.40;85.80;;;;;;5052451;28;20025;-76
2021/07/15 01:16:02;;;;;;;0.00;0.00;;;14.40;85.70;;;;;;5029421;28;20183;-75
2021/07/15 01:19:05;;;;;;;0.00;0.00;;;14.40;85.80;;;;;;5040693;28;20106;-76
2021/07/15 01:22:01;;;;;;;0.43;0.00;;;14.40;85.20;;;;;;5051055;28;20160;-76
2021/07/15 01:24:57;;;;;;;2.40;0.00;;;14.50;85.50;;;;;;5052698;28;20025;-75
2021/07/15 01:27:44;;;;;;;0.00;0.00;;;14.50;85.10;;;;;;5034572;28;20025;-76
2021/07/15 01:30:21;;;;;;;0.00;0.00;;;14.50;85.20;;;;;;5052540;28;20061;-76
2021/07/15 01:33:15;;;;;;;0.03;0.00;;;14.50;86.10;;;;;;5051097;28;20112;-76
2021/07/15 01:36:00;;;;;;;1.17;0.10;;;14.40;85.90;;;;;;5034587;28;20025;-76
2021/07/15 01:38:30;;;;;;;0.17;0.00;;;14.50;85.50;;;;;;5034766;28;20052;-76
2021/07/15 01:41:10;;;;;;;0.00;0.00;;;14.50;85.10;;;;;;5052580;28;20112;-76
2021/07/15 01:43:49;;;;;;;0.00;0.00;;;14.50;84.90;;;;;;5038158;28;20036;-75
2021/07/15 01:46:16;;;;;;;0.00;0.00;;;14.50;84.70;;;;;;5038147;28;20021;-75
2021/07/15 01:48:42;;;;;;;0.00;0.00;;;14.40;84.30;;;;;;5037896;28;20044;-75
2021/07/15 01:51:10;;;;;;;0.00;0.00;;;14.50;85.00;;;;;;5004887;28;20044;-75
2021/07/15 01:53:37;;;;;;;0.00;0.00;;;14.50;84.60;;;;;;5037703;28;20021;-76
2021/07/15 01:56:04;;;;;;;0.35;0.00;;;14.50;84.30;;;;;;5037867;28;20021;-73
2021/07/15 01:58:32;;;;;;;0.15;0.00;;;14.50;84.30;;;;;;5037362;28;20365;-73
2021/07/15 02:01:00;;;;;;;0.00;0.00;;;14.50;84.20;;;;;;5037853;28;20472;-74
2021/07/15 02:03:27;;;;;;;0.75;0.10;;;14.50;84.20;;;;;;5037783;28;20036;-73
2021/07/15 02:05:56;;;;;;;0.10;0.10;;;14.50;84.30;;;;;;5055470;28;20108;-73
2021/07/15 02:08:22;;;;;;;0.00;0.00;;;14.50;84.70;;;;;;5055568;28;20075;-75
2021/07/15 02:10:48;;;;;;;0.20;0.00;;;14.50;84.60;;;;;;5055345;28;20080;-74
2021/07/15 02:13:14;;;;;;;0.00;0.00;;;14.40;84.00;;;;;;5053874;28;20025;-74
2021/07/15 02:15:42;;;;;;;0.00;0.00;;;14.50;84.50;;;;;;5054615;28;20048;-75
2021/07/15 02:18:19;;;;;;;0.47;0.00;;;14.50;84.30;;;;;;5037407;28;20033;-74
2021/07/15 02:20:48;;;;;;;0.00;0.00;;;14.50;84.30;;;;;;5055476;28;20113;-74
2021/07/15 02:23:15;;;;;;;0.00;0.00;;;14.50;84.30;;;;;;5055282;28;20397;-74
2021/07/15 02:25:41;;;;;;;1.95;0.05;;;14.50;84.10;;;;;;5020606;28;20119;-75
2021/07/15 02:28:10;;;;;;;0.13;0.00;;;14.50;84.40;;;;;;5037402;28;20374;-74
2021/07/15 02:30:36;;;;;;;0.93;0.30;;;14.40;84.20;;;;;;5037072;28;20120;-75
2021/07/15 02:33:06;;;;;;;0.00;0.00;;;14.40;84.30;;;;;;5020677;28;20452;-74
2021/07/15 02:35:42;;;;;;;0.00;0.00;;;14.40;84.60;;;;;;5037180;28;20025;-74
2021/07/15 02:38:12;;;;;;;0.00;0.00;;;14.40;84.70;;;;;;5036753;28;20477;-74
2021/07/15 02:40:38;;;;;;;0.10;0.00;;;14.40;84.70;;;;;;5037018;28;20489;-74
2021/07/15 02:43:05;;;;;;;1.08;0.00;;;14.40;85.00;;;;;;5020487;28;20033;-74
2021/07/15 02:45:30;;;;;;;0.00;0.00;;;14.40;85.00;;;;;;5036688;28;20115;-74
2021/07/15 02:47:56;;;;;;;1.05;0.00;;;14.40;85.10;;;;;;5036887;28;20052;-74
2021/07/15 02:50:23;;;;;;;0.03;0.00;;;14.40;84.80;;;;;;5036619;28;20591;-74
2021/07/15 02:52:51;;;;;;;0.00;0.00;;;14.40;84.80;;;;;;5020736;28;20366;-75
2021/07/15 02:55:17;;;;;;;0.60;0.13;;;14.40;84.60;;;;;;5038734;28;20033;-74
2021/07/15 02:57:42;;;;;;;0.00;0.00;;;14.40;84.80;;;;;;5020039;28;20052;-74
2021/07/15 03:00:14;;;;;;;0.00;0.00;;;14.40;84.60;;;;;;5036682;28;20486;-75
2021/07/15 03:03:02;;;;;;;0.25;0.00;;;14.40;85.10;;;;;;5032972;28;20045;-74
2021/07/15 03:05:35;;;;;;;0.00;0.00;;;14.40;84.30;;;;;;5034339;28;20017;-75
2021/07/15 03:08:08;;;;;;;0.40;0.00;;;14.50;84.80;;;;;;5049837;28;20109;-75
2021/07/15 03:10:35;;;;;;;0.55;0.00;;;14.50;84.50;;;;;;5033225;28;20033;-75
2021/07/15 03:13:08;;;;;;;0.10;0.00;;;14.60;84.30;;;;;;5049614;28;20075;-74
2021/07/15 03:15:35;;;;;;;0.00;0.00;;;14.60;84.50;;;;;;5032962;28;20099;-75
2021/07/15 03:18:04;;;;;;;0.30;0.08;;;14.60;84.30;;;;;;5016661;28;20458;-75
2021/07/15 03:20:34;;;;;;;0.05;0.00;;;14.60;84.40;;;;;;5049249;28;20076;-75
2021/07/15 03:23:05;;;;;;;0.10;0.00;;;14.60;84.50;;;;;;5016527;28;20124;-75
2021/07/15 03:25:33;;;;;;;0.22;0.00;;;14.60;84.70;;;;;;5049400;28;20040;-74
2021/07/15 03:28:02;;;;;;;0.30;0.00;;;14.70;85.50;;;;;;5049111;28;20035;-75
2021/07/15 03:30:31;;;;;;;0.10;0.00;;;14.70;85.10;;;;;;5033907;28;20068;-74
2021/07/15 03:32:57;;;;;;;0.20;0.00;;;14.70;84.90;;;;;;5032536;28;20025;-74
2021/07/15 03:35:24;;;;;;;0.10;0.00;;;14.70;84.40;;;;;;5033186;28;20021;-74
2021/07/15 03:37:53;;;;;;;1.33;0.00;;;14.70;84.50;;;;;;5032314;28;20029;-74
2021/07/15 03:40:22;;;;;;;0.10;0.10;;;14.70;84.90;;;;;;5049183;28;20052;-74
2021/07/15 03:42:48;;;;;;;1.17;0.10;;;14.80;84.90;;;;;;5049189;28;20029;-74
2021/07/15 03:45:16;;;;;;;4.85;0.20;;;14.80;85.40;;;;;;5048695;28;20095;-75
2021/07/15 03:47:43;;;;;;;0.20;0.13;;;14.80;85.60;;;;;;5049162;28;20037;-74
2021/07/15 03:50:10;;;;;;;0.85;0.22;;;14.80;85.80;;;;;;5049014;28;20132;-75
2021/07/15 03:52:38;;;;;;;0.10;0.10;;;14.80;85.60;;;;;;5048648;28;20030;-75
2021/07/15 03:55:06;;;;;;;1.17;0.32;;;14.80;85.80;;;;;;5032539;28;20032;-74
2021/07/15 03:57:33;;;;;;;1.00;0.30;;;14.90;85.80;;;;;;5048048;28;20037;-74
2021/07/15 04:00:00;;;;;;;2.17;0.60;;;14.90;86.00;;;;;;5032360;28;20029;-75
2021/07/15 04:02:29;;;;;;;2.15;0.20;;;14.90;85.70;;;;;;5047827;28;20056;-74
2021/07/15 04:04:57;;;;;;;1.65;0.10;;;14.90;85.60;;;;;;5035253;28;20033;-74
2021/07/15 04:07:29;;;;;;;1.30;0.32;;;14.90;85.40;;;;;;5053248;28;20021;-74
2021/07/15 04:09:57;;;;;;;0.80;0.40;;;15.00;85.40;;;;;;5051519;28;20036;-73
2021/07/15 04:12:24;;;;;;;0.17;0.10;;;15.00;85.50;;;;;;5035373;28;20028;-74
2021/07/15 04:15:11;;;;;;;1.08;0.10;;;15.00;85.40;;;;;;5040610;28;20029;-74
2021/07/15 04:17:49;;;;;;;0.15;0.10;;;15.00;85.20;;;;;;5037430;28;20040;-74
2021/07/15 04:20:18;;;;;;;0.20;0.10;;;15.00;85.30;;;;;;5035125;28;20017;-74
2021/07/15 04:22:46;;;;;;;1.85;0.20;;;15.00;85.40;;;;;;5035304;28;20389;-74
2021/07/15 04:25:16;;;;;;;2.67;0.20;;;15.10;85.50;;;;;;5035173;28;20473;-74
2021/07/15 04:27:44;;;;;;;1.88;0.38;;;15.20;85.40;;;;;;5035368;28;20075;-74
2021/07/15 04:30:12;;;;;;;2.38;0.20;;;15.30;85.20;;;;;;5035167;28;20025;-74
2021/07/15 04:32:40;;;;;;;1.23;0.10;;;15.40;84.90;;;;;;5034722;28;20524;-74
2021/07/15 04:35:08;;;;;;;0.85;0.30;;;15.40;84.70;;;;;;5052820;28;20033;-74
2021/07/15 04:37:36;;;;;;;0.60;0.13;;;15.40;84.60;;;;;;5052580;28;20499;-74
2021/07/15 04:40:03;;;;;;;0.00;0.00;;;15.40;84.40;;;;;;5035038;28;20485;-74
2021/07/15 04:42:30;;;;;;;0.08;0.00;;;15.50;84.40;;;;;;5052227;28;20529;-74
2021/07/15 04:44:59;;;;;;;0.20;0.00;;;15.60;83.70;;;;;;5034496;28;20115;-74
2021/07/15 04:47:25;;;;;;;3.10;0.10;;;15.60;83.60;;;;;;5034218;28;20385;-74
2021/07/15 04:49:51;;;;;;;0.25;0.00;;;15.60;83.50;;;;;;5052244;28;20025;-73
2021/07/15 04:52:18;;;;;;;0.00;0.00;;;15.60;83.50;;;;;;5052698;28;20021;-74
2021/07/15 04:54:46;;;;;;;0.00;0.00;;;15.60;82.60;;;;;;5051589;28;20032;-74
2021/07/15 04:57:13;;;;;;;1.20;0.30;;;15.60;82.40;;;;;;5034767;28;20075;-74
2021/07/15 04:59:40;;;;;;;0.40;0.10;;;15.60;81.80;;;;;;5052496;28;20025;-75
2021/07/15 05:02:06;;;;;;;0.17;0.17;;;15.60;81.90;;;;;;5052433;28;20229;-74
2021/07/15 05:04:32;;;;;;;0.85;0.00;;;15.60;82.40;;;;;;5034597;28;20477;-74
2021/07/15 05:06:58;;;;;;;0.17;0.00;;;15.60;82.20;;;;;;5034474;28;20021;-75
2021/07/15 05:09:24;;;;;;;0.55;0.20;;;15.60;83.10;;;;;;5034313;28;20032;-74
2021/07/15 05:11:50;;;;;;;0.68;0.20;;;15.70;82.70;;;;;;5034328;28;20032;-74
2021/07/15 05:14:17;;;;;;;0.43;0.10;;;15.80;82.90;;;;;;5034179;28;20501;-74
2021/07/15 05:16:43;;;;;;;0.57;0.00;;;15.80;82.50;;;;;;5035710;28;20056;-74
2021/07/15 05:19:09;;;;;;;0.40;0.40;;;15.90;82.70;;;;;;5037658;28;20068;-74
2021/07/15 05:21:34;;;;;;;0.95;0.60;;;15.90;83.00;;;;;;5037986;28;20528;-74
2021/07/15 05:24:00;;;;;;;0.52;0.43;;;15.90;83.10;;;;;;5037778;28;20094;-75
2021/07/15 05:26:26;;;;;;;1.02;0.50;;;16.00;82.80;;;;;;5037049;28;20025;-74
2021/07/15 05:28:54;;;;;;;0.20;0.20;;;16.00;82.30;;;;;;5055388;28;20029;-74
2021/07/15 05:31:21;;;;;;;0.57;0.10;;;16.00;81.90;;;;;;5037830;28;20062;-74
2021/07/15 05:33:49;;;;;;;1.35;0.10;;;16.00;81.60;;;;;;5037936;28;20105;-74
2021/07/15 05:36:15;;;;;;;0.08;0.08;;;16.10;81.30;;;;;;5037974;28;20025;-74
2021/07/15 05:38:42;;;;;;;2.40;0.10;;;16.00;80.00;;;;;;5037792;28;20472;-74
2021/07/15 05:41:09;;;;;;;0.10;0.00;;;16.00;80.60;;;;;;5038002;28;20017;-74
2021/07/15 05:43:35;;;;;;;0.68;0.10;;;15.90;80.30;;;;;;5037812;28;20028;-75
2021/07/15 05:46:02;;;;;;;0.50;0.10;;;15.90;80.70;;;;;;5055307;28;20171;-74
2021/07/15 05:48:28;;;;;;;0.20;0.00;;;15.90;80.80;;;;;;5037633;28;20074;-74
2021/07/15 05:50:53;;;;;;;1.58;0.13;;;16.00;80.90;;;;;;5037866;28;20119;-74
2021/07/15 05:53:19;;;;;;;1.65;0.00;;;16.10;80.70;;;;;;5055656;28;20488;-73
2021/07/15 05:55:45;;;;;;;1.50;0.08;;;16.30;80.50;;;;;;5055548;28;20422;-75
2021/07/15 05:58:10;;;;;;;0.43;0.05;;;16.50;80.40;;;;;;5036914;28;20045;-74
2021/07/15 06:00:36;;;;;;;0.20;0.10;;;16.60;80.20;;;;;;5037630;28;20029;-73
2021/07/15 06:03:02;;;;;;;0.30;0.20;;;16.60;79.80;;;;;;5055402;28;20045;-74
2021/07/15 06:05:30;;;;;;;0.63;0.10;;;16.70;79.30;;;;;;5037182;28;20063;-74
2021/07/15 06:07:56;;;;;;;0.40;0.40;;;16.70;78.40;;;;;;5055416;28;20112;-74
2021/07/15 06:10:22;;;;;;;0.47;0.13;;;16.80;77.80;;;;;;5037203;28;20025;-72
2021/07/15 06:12:48;;;;;;;0.57;0.00;;;16.70;77.40;;;;;;5004704;28;20028;-75
2021/07/15 06:15:13;;;;;;;1.13;0.00;;;16.70;78.10;;;;;;5037416;28;20029;-75
2021/07/15 06:17:39;;;;;;;1.45;0.00;;;16.60;78.40;;;;;;5037745;28;20025;-75
2021/07/15 06:20:05;;;;;;;0.30;0.10;;;16.60;78.80;;;;;;5037365;28;20123;-74
2021/07/15 06:22:31;;;;;;;1.25;0.10;;;16.70;78.80;;;;;;5038276;28;20501;-74
2021/07/15 06:24:56;;;;;;;1.60;0.10;;;16.70;77.90;;;;;;5037224;28;20147;-74
2021/07/15 06:27:22;;;;;;;0.17;0.13;;;16.60;77.60;;;;;;5057943;28;20032;-75
2021/07/15 06:29:49;;;;;;;0.52;0.00;;;16.50;78.70;;;;;;5039467;28;20029;-74
2021/07/15 06:32:14;;;;;;;0.73;0.17;;;16.50;79.00;;;;;;5039294;28;20500;-74
2021/07/15 06:34:40;;;;;;;0.10;0.10;;;16.30;79.50;;;;;;5037983;28;20127;-75
2021/07/15 06:37:08;;;;;;;0.03;0.00;;;16.30;79.90;;;;;;5038407;28;20485;-74
2021/07/15 06:39:34;;;;;;;0.55;0.10;;;16.30;80.10;;;;;;5037909;28;20036;-74
2021/07/15 06:42:00;;;;;;;0.10;0.05;;;16.30;80.60;;;;;;5037670;28;20021;-73
2021/07/15 06:44:26;;;;;;;0.30;0.10;;;16.30;80.20;;;;;;5037446;28;20057;-74
2021/07/15 06:46:51;;;;;;;0.10;0.00;;;16.40;79.50;;;;;;5037422;28;20057;-73
2021/07/15 06:49:17;;;;;;;0.10;0.00;;;16.30;79.90;;;;;;5055305;28;20524;-74
2021/07/15 06:51:43;;;;;;;0.10;0.00;;;16.30;80.00;;;;;;5037614;28;20481;-73
2021/07/15 06:54:08;;;;;;;0.03;0.00;;;16.30;80.40;;;;;;5036947;28;20025;-73
2021/07/15 06:56:34;;;;;;;0.00;0.00;;;16.20;80.90;;;;;;5036799;28;20025;-74
2021/07/15 06:58:59;;;;;;;0.10;0.10;;;16.20;80.60;;;;;;5036302;28;20040;-74
2021/07/15 07:01:25;;;;;;;0.32;0.22;;;16.30;80.60;;;;;;5036402;28;20064;-74
2021/07/15 07:03:51;;;;;;;0.10;0.05;;;16.20;81.00;;;;;;5036007;28;20028;-73
2021/07/15 07:06:17;;;;;;;1.85;0.10;;;16.20;80.50;;;;;;5054151;28;20060;-73
2021/07/15 07:08:42;;;;;;;0.57;0.20;;;16.20;81.40;;;;;;5053948;28;20033;-73
2021/07/15 07:11:08;;;;;;;0.10;0.00;;;16.20;81.30;;;;;;5036223;28;20191;-73
2021/07/15 07:13:34;;;;;;;0.35;0.05;;;16.20;81.90;;;;;;5035905;28;20032;-73
2021/07/15 07:16:00;;;;;;;0.85;0.40;;;16.20;81.70;;;;;;5054477;28;20021;-73
2021/07/15 07:18:26;;;;;;;1.30;0.10;;;16.20;80.90;;;;;;5036260;28;20025;-74
2021/07/15 07:20:51;;;;;;;0.20;0.08;;;16.30;80.90;;;;;;5053852;28;20037;-74
2021/07/15 07:23:17;;;;;;;1.73;0.10;;;16.30;81.50;;;;;;5035997;28;20031;-74
2021/07/15 07:25:44;;;;;;;0.70;0.00;;;16.30;81.00;;;;;;5036099;28;20119;-74
2021/07/15 07:28:10;;;;;;;0.60;0.03;;;16.30;80.40;;;;;;5031607;28;20024;-74
2021/07/15 07:30:36;;;;;;;0.63;0.20;;;16.40;80.50;;;;;;5040396;28;20033;-74
2021/07/15 07:33:02;;;;;;;0.60;0.10;;;16.50;80.00;;;;;;5036635;28;20017;-74
2021/07/15 07:35:28;;;;;;;0.70;0.35;;;16.50;79.60;;;;;;5035291;28;21070;-73
2021/07/15 07:37:54;;;;;;;1.05;0.40;;;16.50;80.00;;;;;;5053734;28;20078;-74
2021/07/15 07:40:19;;;;;;;1.70;0.68;;;16.50;80.20;;;;;;5035087;28;20025;-73
2021/07/15 07:42:46;;;;;;;2.78;1.30;;;16.60;80.60;;;;;;5052249;28;20035;-73
2021/07/15 07:45:13;;;;;;;1.52;0.85;;;16.80;79.00;;;;;;5035674;28;20032;-73
2021/07/15 07:47:40;;;;;;;1.48;0.60;;;17.10;79.70;;;;;;5035618;28;20025;-73
2021/07/15 07:50:09;;;;;;;1.48;0.40;;;17.50;77.10;;;;;;5035396;28;20132;-72
2021/07/15 07:52:34;;;;;;;0.30;0.30;;;17.60;76.00;;;;;;5035425;28;20512;-73
2021/07/15 07:55:00;;;;;;;0.30;0.20;;;17.80;74.70;;;;;;5052639;28;20033;-73
2021/07/15 07:57:26;;;;;;;0.50;0.30;;;17.80;75.00;;;;;;5022293;28;20404;-73
2021/07/15 07:59:53;;;;;;;1.08;0.35;;;17.90;74.50;;;;;;5052376;28;20119;-73
2021/07/15 08:02:20;;;;;;;0.43;0.22;;;17.90;74.10;;;;;;5053191;28;20063;-73
2021/07/15 08:04:46;;;;;;;0.95;0.60;;;17.90;73.50;;;;;;5035330;28;20477;-73
2021/07/15 08:07:15;;;;;;;1.38;0.93;;;18.00;73.20;;;;;;5035231;28;20029;-74
2021/07/15 08:09:46;;;;;;;1.13;0.60;;;18.00;73.90;;;;;;5035296;28;20021;-73
2021/07/15 08:12:15;;;;;;;0.65;0.50;;;17.80;74.80;;;;;;5053135;28;20078;-73
2021/07/15 08:14:41;;;;;;;1.30;0.77;;;18.10;74.00;;;;;;5036770;28;20052;-75
2021/07/15 08:17:07;;;;;;;2.50;0.80;;;18.40;73.40;;;;;;5035301;28;20029;-73
2021/07/15 08:19:33;;;;;;;0.50;0.50;;;18.60;73.10;;;;;;5052915;28;20037;-73
2021/07/15 08:21:59;;;;;;;0.90;0.90;;;18.80;72.20;;;;;;5053046;28;20431;-74
2021/07/15 08:24:24;;;;;;;1.70;1.13;;;18.60;72.20;;;;;;5051634;28;20025;-73
2021/07/15 08:26:50;;;;;;;0.32;0.32;;;18.30;72.80;;;;;;5034497;28;20025;-73
2021/07/15 08:29:16;;;;;;;1.40;0.77;;;18.10;74.10;;;;;;5034677;28;20040;-74
2021/07/15 08:31:45;;;;;;;0.50;0.30;;;18.00;74.70;;;;;;5017830;28;20025;-75
2021/07/15 08:34:11;;;;;;;2.78;0.40;;;17.90;74.80;;;;;;5034532;28;20032;-74
2021/07/15 08:36:40;;;;;;;0.90;0.80;;;17.80;76.00;;;;;;5034475;28;20029;-74
2021/07/15 08:39:09;;;;;;;0.95;0.60;;;17.80;75.70;;;;;;5051685;28;20415;-74
2021/07/15 08:41:36;;;;;;;0.50;0.40;;;17.90;75.50;;;;;;5034078;28;20025;-74
2021/07/15 08:44:04;;;;;;;0.20;0.20;;;17.90;75.10;;;;;;5034373;28;20377;-75
2021/07/15 08:46:31;;;;;;;1.52;0.70;;;17.90;75.30;;;;;;5034898;28;20029;-74
2021/07/15 08:48:59;;;;;;;3.70;0.40;;;18.00;75.20;;;;;;5018216;28;20029;-75
2021/07/15 08:51:25;;;;;;;0.35;0.30;;;18.00;76.40;;;;;;5053892;28;20028;-75
2021/07/15 08:53:51;;;;;;;0.32;0.28;;;18.10;75.50;;;;;;5038741;28;20028;-75
2021/07/15 08:59:01;;;;;;;1.38;0.30;;;18.10;75.40;;;;;;5056797;28;20090;-74
2021/07/15 09:01:37;;;;;;;2.58;0.57;;;18.20;73.90;;;;;;5037990;28;20510;-75
2021/07/15 09:04:05;;;;;;;0.90;0.30;;;18.10;74.90;;;;;;5022453;28;20029;-74
2021/07/15 09:06:32;;;;;;;0.45;0.22;;;18.00;74.70;;;;;;5056548;28;20025;-74
2021/07/15 09:08:57;;;;;;;1.45;0.20;;;17.90;75.30;;;;;;5038388;28;20481;-74
2021/07/15 09:11:24;;;;;;;1.13;0.40;;;17.90;74.90;;;;;;5038186;28;20116;-74
2021/07/15 09:13:51;;;;;;;0.77;0.20;;;17.90;75.50;;;;;;5038501;28;20112;-75
2021/07/15 09:16:18;;;;;;;0.60;0.32;;;17.80;76.30;;;;;;5038181;28;20086;-74
2021/07/15 09:18:56;;;;;;;0.40;0.28;;;17.80;76.50;;;;;;5021838;28;20123;-74
2021/07/15 09:21:23;;;;;;;0.35;0.30;;;17.80;77.70;;;;;;5038232;28;20021;-75
2021/07/15 09:23:49;;;;;;;0.43;0.20;;;18.00;76.70;;;;;;5038363;28;20029;-75
2021/07/15 09:26:15;;;;;;;1.88;0.35;;;18.20;76.00;;;;;;5055954;28;20025;-75
2021/07/15 09:28:41;;;;;;;2.80;0.45;;;18.40;74.80;;;;;;5038092;28;20033;-74
2021/07/15 09:31:15;;;;;;;2.65;0.20;;;18.30;75.00;;;;;;5037699;28;20025;-73
2021/07/15 09:33:41;;;;;;;2.38;0.28;;;18.40;74.70;;;;;;5020951;28;20025;-74
2021/07/15 09:36:16;;;;;;;0.93;0.17;;;18.30;74.70;;;;;;5056243;28;20056;-73
2021/07/15 09:38:42;;;;;;;0.20;0.20;;;18.20;76.90;;;;;;5054392;28;20093;-73
2021/07/15 09:41:08;;;;;;;1.00;0.17;;;18.30;77.60;;;;;;5055640;28;20094;-74
2021/07/15 09:43:38;;;;;;;1.85;0.20;;;18.50;76.80;;;;;;5037448;28;20480;-73
2021/07/15 09:46:13;;;;;;;1.55;0.20;;;18.70;75.10;;;;;;5037951;28;20020;-73
2021/07/15 09:48:44;;;;;;;0.43;0.10;;;19.00;74.70;;;;;;5037754;28;20025;-74
2021/07/15 09:51:13;;;;;;;3.38;0.32;;;19.10;72.20;;;;;;5054316;28;20481;-74
2021/07/15 09:53:41;;;;;;;1.33;0.40;;;19.10;72.20;;;;;;5055336;28;20033;-73
2021/07/15 09:56:19;;;;;;;0.30;0.17;;;19.20;72.70;;;;;;5037407;28;20055;-73
2021/07/15 09:58:48;;;;;;;0.22;0.10;;;19.00;73.50;;;;;;5037487;28;20072;-74
2021/07/15 10:01:22;;;;;;;0.55;0.30;;;19.00;73.90;;;;;;5037121;28;20045;-74
2021/07/15 10:03:57;;;;;;;2.00;0.17;;;19.10;71.90;;;;;;5036917;28;20074;-73
2021/07/15 10:06:23;;;;;;;0.40;0.10;;;19.20;71.90;;;;;;5037057;28;20054;-74
2021/07/15 10:08:53;;;;;;;0.20;0.13;;;19.10;71.40;;;;;;5037059;28;20033;-74
2021/07/15 10:11:20;;;;;;;0.50;0.32;;;19.10;71.20;;;;;;5036661;28;20025;-74
2021/07/15 10:14:05;;;;;;;0.90;0.40;;;19.00;72.00;;;;;;5036793;28;20029;-76
2021/07/15 10:16:36;;;;;;;0.10;0.10;;;18.90;72.40;;;;;;5054716;28;20018;-74
2021/07/15 10:19:04;;;;;;;0.20;0.20;;;19.10;71.30;;;;;;5032140;28;20033;-73
2021/07/15 10:21:32;;;;;;;0.20;0.13;;;19.20;70.90;;;;;;5036200;28;20175;-73
2021/07/15 10:24:02;;;;;;;0.38;0.10;;;19.40;70.90;;;;;;5036504;28;20021;-73
2021/07/15 10:26:28;;;;;;;0.13;0.13;;;19.40;71.00;;;;;;5036420;28;20052;-74
2021/07/15 10:28:54;;;;;;;0.30;0.30;;;19.50;69.80;;;;;;5053360;28;20429;-74
2021/07/15 10:31:22;;;;;;;1.27;0.20;;;19.50;70.20;;;;;;5053272;28;20119;-73
2021/07/15 10:33:47;;;;;;;1.75;0.32;;;19.80;70.40;;;;;;5036580;28;20067;-74
2021/07/15 10:36:14;;;;;;;0.22;0.22;;;19.90;68.20;;;;;;5036641;28;20053;-73
2021/07/15 10:38:45;;;;;;;0.20;0.20;;;20.10;67.30;;;;;;5053216;28;20087;-74
2021/07/15 10:41:13;;;;;;;0.22;0.10;;;19.90;67.90;;;;;;5036107;28;20083;-74
2021/07/15 10:43:40;;;;;;;0.40;0.20;;;19.80;68.90;;;;;;5036418;28;20025;-73
2021/07/15 10:46:07;;;;;;;5.63;0.40;;;19.80;69.30;;;;;;5036561;28;20573;-73
2021/07/15 10:48:35;;;;;;;0.40;0.30;;;19.70;70.00;;;;;;5036279;28;20057;-75
2021/07/15 10:51:06;;;;;;;0.52;0.22;;;19.50;71.60;;;;;;5036289;28;20083;-74
2021/07/15 10:53:35;;;;;;;0.20;0.17;;;19.40;70.00;;;;;;5035283;28;20031;-75
2021/07/15 10:56:04;;;;;;;1.55;0.30;;;19.30;71.00;;;;;;5036786;28;20428;-74
2021/07/15 10:58:51;;;;;;;0.40;0.30;;;19.50;70.90;;;;;;5054105;28;20040;-74
2021/07/15 11:01:35;;;;;;;0.38;0.20;;;19.60;70.30;;;;;;5036007;28;20051;-75
2021/07/15 11:04:05;;;;;;;0.28;0.20;;;19.60;71.10;;;;;;5036456;28;20017;-75
2021/07/15 11:06:47;;;;;;;0.20;0.10;;;19.70;70.40;;;;;;5019956;28;20025;-79
2021/07/15 11:09:36;;;;;;;0.50;0.20;;;19.80;69.10;;;;;;5036216;28;20025;-75
2021/07/15 11:12:05;;;;;;;1.27;0.25;;;19.70;69.50;;;;;;5035968;28;20051;-75
2021/07/15 11:14:45;;;;;;;1.00;0.45;;;19.80;70.00;;;;;;5018138;28;20074;-74
2021/07/15 11:17:30;;;;;;;0.70;0.45;;;19.80;72.20;;;;;;5035965;28;20052;-75
2021/07/15 11:20:24;;;;;;;1.88;0.30;;;19.80;73.70;;;;;;5035722;28;20477;-75
2021/07/15 11:23:17;;;;;;;1.88;0.40;;;20.00;74.30;;;;;;5053532;28;20036;-75
2021/07/15 11:25:43;;;;;;;0.30;0.20;;;20.20;75.80;;;;;;5036516;28;20025;-75
2021/07/15 11:28:48;;;;;;;0.25;0.22;;;20.40;75.70;;;;;;5053140;28;20077;-74
2021/07/15 11:31:44;;;;;;;0.57;0.30;;;20.60;76.30;;;;;;5053256;28;20033;-75
2021/07/15 11:34:30;;;;;;;1.05;0.40;;;20.60;75.20;;;;;;5035829;28;20070;-75
2021/07/15 11:37:25;;;;;;;0.68;0.47;;;20.70;75.40;;;;;;5051824;28;20102;-75
2021/07/15 11:39:56;;;;;;;0.85;0.38;;;20.60;74.60;;;;;;5035688;28;20112;-75
2021/07/15 11:42:28;;;;;;;1.70;0.55;;;20.60;74.20;;;;;;5053216;28;20072;-74
2021/07/15 11:45:02;;;;;;;1.13;0.55;;;20.70;73.90;;;;;;5035553;28;20078;-75
2021/07/15 11:47:51;;;;;;;1.10;0.50;;;20.70;73.10;;;;;;5052048;28;20078;-74
2021/07/15 11:50:36;;;;;;;1.88;0.47;;;20.60;72.70;;;;;;5036072;28;20035;-75
2021/07/15 11:53:22;;;;;;;2.38;0.30;;;20.60;72.70;;;;;;5056451;28;20025;-75
2021/07/15 11:55:53;;;;;;;0.70;0.47;;;20.50;73.70;;;;;;5052187;28;20033;-74
2021/07/15 11:58:46;;;;;;;1.67;0.50;;;20.40;74.70;;;;;;5053371;28;20041;-75
2021/07/15 12:01:14;;;;;;;1.15;0.45;;;20.20;75.70;;;;;;5032046;28;20046;-73
2021/07/15 12:03:56;;;;;;;1.05;0.90;;;20.10;76.10;;;;;;5023493;28;20044;-76
2021/07/15 12:06:22;;;;;;;3.13;1.20;;;19.90;76.70;;;;;;5030660;28;20060;-75
2021/07/15 12:08:48;;;;;;;5.10;1.80;;;19.60;78.20;;;;;;5031739;28;20025;-73
2021/07/15 12:11:19;;;;;;;4.25;1.40;;;19.30;80.50;;;;;;5031513;28;20036;-75
2021/07/15 12:13:49;;;;;;;4.53;1.23;;;19.10;81.10;;;;;;5032246;28;20359;-74
2021/07/15 12:16:19;;;;;;;1.95;0.60;;;18.90;81.20;;;;;;5032988;28;20029;-80
2021/07/15 12:18:46;;;;;;;2.80;0.95;;;18.80;81.50;;;;;;5033025;28;20477;-79
2021/07/15 12:21:12;;;;;;;1.10;0.70;;;18.60;80.90;;;;;;5031544;28;20028;-77
2021/07/15 12:23:40;;;;;;;1.42;0.60;;;18.60;81.50;;;;;;5031868;28;20071;-75
2021/07/15 12:26:09;;;;;;;0.77;0.43;;;18.60;81.60;;;;;;5031365;28;20022;-75
2021/07/15 12:28:36;;;;;;;1.30;0.50;;;18.60;81.00;;;;;;5032882;28;20032;-75
2021/07/15 12:31:14;;;;;;;0.65;0.35;;;18.60;81.00;;;;;;5031653;28;20022;-78
2021/07/15 12:33:47;;;;;;;0.65;0.47;;;18.60;80.10;;;;;;5031873;28;20483;-74
2021/07/15 12:36:14;;;;;;;0.70;0.30;;;18.40;81.20;;;;;;5032877;28;20040;-72
2021/07/15 12:38:42;;;;;;;0.30;0.30;;;18.40;79.70;;;;;;5031526;28;20033;-74
2021/07/15 12:41:15;;;;;;;1.95;0.47;;;18.40;80.00;;;;;;5031529;28;20026;-76
2021/07/15 12:43:53;;;;;;;1.33;0.55;;;18.30;80.10;;;;;;5031842;28;20452;-74
2021/07/15 12:46:22;;;;;;;0.63;0.50;;;18.30;81.20;;;;;;5031326;28;20028;-74
2021/07/15 12:48:51;;;;;;;1.15;0.40;;;18.20;81.00;;;;;;5032588;28;20026;-76
2021/07/15 12:51:19;;;;;;;0.40;0.30;;;18.10;82.30;;;;;;5031210;28;20029;-74
2021/07/15 12:53:48;;;;;;;1.25;0.50;;;18.10;82.40;;;;;;5031795;28;20378;-83
2021/07/15 12:56:18;;;;;;;0.57;0.40;;;18.20;82.20;;;;;;5031444;28;20033;-73
2021/07/15 12:58:58;;;;;;;0.45;0.40;;;18.50;80.70;;;;;;5031435;28;20460;-73
2021/07/15 13:01:28;;;;;;;0.90;0.50;;;18.90;80.20;;;;;;5039173;28;20052;-74
2021/07/15 13:04:10;;;;;;;0.50;0.40;;;19.30;79.50;;;;;;5034753;28;20025;-73